Time;durP1;ratioP1;P1;durP2;ratioP2;P2;SDS_P1;SDS_P2;PMS_P1;PMS_P2;Temp;Humidity;BMP_temperature;BMP_pressure;BME280_temperature;BME280_humidity;BME280_pressure;Samples;Min_cycle;Max_cycle;Signal;HPM_P1;HPM_P2
2023/11/11 00:01:43;;;;;;;1.10;0.97;;;5.90;99.90;;;;;;4942943;29;20433;-78
2023/11/11 00:04:08;;;;;;;1.90;0.93;;;6.10;99.90;;;;;;4952118;29;20216;-76
2023/11/11 00:06:34;;;;;;;1.50;0.80;;;6.00;99.90;;;;;;4939712;29;20433;-78
2023/11/11 00:09:00;;;;;;;1.40;0.90;;;5.90;99.90;;;;;;4933184;29;20243;-77
2023/11/11 00:11:26;;;;;;;3.30;1.00;;;6.00;99.90;;;;;;4923749;29;20218;-79
2023/11/11 00:13:56;;;;;;;1.60;1.00;;;6.00;99.90;;;;;;4914615;29;20188;-82
2023/11/11 00:16:25;;;;;;;1.60;1.07;;;6.00;99.90;;;;;;4960625;28;20426;-81
2023/11/11 00:18:51;;;;;;;3.70;1.00;;;6.00;99.90;;;;;;4928836;29;20413;-81
2023/11/11 00:21:17;;;;;;;2.20;1.10;;;6.10;99.90;;;;;;4951245;28;20498;-81
2023/11/11 00:23:43;;;;;;;1.23;0.70;;;6.20;99.90;;;;;;4963042;28;20413;-82
2023/11/11 00:26:09;;;;;;;2.20;1.30;;;6.10;99.90;;;;;;4953334;29;20197;-81
2023/11/11 00:28:41;;;;;;;1.20;0.80;;;6.10;99.90;;;;;;4943073;29;20606;-80
2023/11/11 00:31:10;;;;;;;1.60;1.10;;;6.20;99.90;;;;;;4959840;28;20557;-79
2023/11/11 00:33:38;;;;;;;2.70;1.27;;;6.20;99.90;;;;;;4928293;29;20434;-78
2023/11/11 00:36:08;;;;;;;2.20;1.10;;;6.10;99.90;;;;;;4939524;29;20486;-77
2023/11/11 00:38:36;;;;;;;2.50;1.50;;;6.10;99.90;;;;;;4945116;29;20425;-78
2023/11/11 00:41:03;;;;;;;2.17;1.53;;;6.30;99.90;;;;;;4954958;29;20620;-78
2023/11/11 00:43:29;;;;;;;2.37;1.30;;;6.20;99.90;;;;;;4934594;29;20806;-76
2023/11/11 00:45:55;;;;;;;1.73;1.20;;;6.40;99.90;;;;;;4969612;29;20441;-78
2023/11/11 00:48:21;;;;;;;2.93;1.50;;;6.30;99.90;;;;;;4954027;29;20447;-79
2023/11/11 00:50:47;;;;;;;6.50;2.60;;;6.30;99.90;;;;;;4945155;29;20472;-80
2023/11/11 00:53:12;;;;;;;5.77;2.30;;;6.40;99.90;;;;;;4945801;29;20421;-78
2023/11/11 00:55:38;;;;;;;4.93;3.10;;;6.20;99.90;;;;;;4920084;29;20201;-77
2023/11/11 00:58:04;;;;;;;10.27;4.80;;;6.20;99.90;;;;;;4955539;29;20224;-79
2023/11/11 01:00:31;;;;;;;10.87;6.77;;;6.40;99.90;;;;;;4948343;29;20501;-77
2023/11/11 01:02:58;;;;;;;13.87;6.60;;;6.30;99.90;;;;;;4938465;29;20429;-78
2023/11/11 01:05:24;;;;;;;10.80;5.60;;;6.30;99.90;;;;;;4964463;29;20490;-78
2023/11/11 01:07:49;;;;;;;11.03;5.67;;;6.30;99.90;;;;;;4944008;29;20465;-78
2023/11/11 01:10:18;;;;;;;14.60;7.10;;;6.30;99.90;;;;;;4936943;29;20440;-78
2023/11/11 01:12:44;;;;;;;14.60;8.03;;;6.50;99.90;;;;;;4941238;29;20494;-77
2023/11/11 01:15:13;;;;;;;18.03;9.57;;;6.60;99.90;;;;;;4933363;29;20545;-79
2023/11/11 01:17:39;;;;;;;23.37;10.57;;;6.50;99.90;;;;;;4939567;29;20424;-79
2023/11/11 01:20:05;;;;;;;23.73;11.73;;;6.40;99.90;;;;;;4953970;29;20432;-79
2023/11/11 01:22:31;;;;;;;16.97;9.70;;;6.40;99.90;;;;;;4954858;29;20418;-78
2023/11/11 01:24:57;;;;;;;18.83;11.10;;;6.60;99.90;;;;;;4956714;29;20483;-77
2023/11/11 01:27:23;;;;;;;21.50;11.73;;;6.50;99.90;;;;;;4959355;29;20429;-78
2023/11/11 01:29:49;;;;;;;25.97;13.70;;;6.50;99.90;;;;;;4954464;29;20774;-77
2023/11/11 01:32:17;;;;;;;19.43;12.10;;;6.60;99.90;;;;;;4965037;29;20798;-77
2023/11/11 01:34:43;;;;;;;24.17;12.67;;;6.50;99.90;;;;;;4950060;29;20444;-78
2023/11/11 01:37:09;;;;;;;25.70;14.80;;;6.60;99.90;;;;;;4947191;29;20426;-78
2023/11/11 01:39:35;;;;;;;24.97;15.10;;;6.40;99.90;;;;;;4930603;29;20453;-78
2023/11/11 01:42:02;;;;;;;29.03;16.23;;;6.60;99.90;;;;;;4941870;29;20436;-78
2023/11/11 01:44:28;;;;;;;31.53;17.40;;;6.60;99.90;;;;;;4949297;29;20444;-77
2023/11/11 01:46:54;;;;;;;31.30;16.80;;;6.70;99.90;;;;;;4948257;29;20428;-77
2023/11/11 01:49:21;;;;;;;33.00;17.27;;;6.60;99.90;;;;;;4938634;29;20165;-78
2023/11/11 01:51:48;;;;;;;43.70;21.20;;;6.50;99.90;;;;;;4927547;29;20422;-78
2023/11/11 01:54:15;;;;;;;38.27;20.30;;;6.50;99.90;;;;;;4949144;29;20486;-76
2023/11/11 01:56:41;;;;;;;44.70;21.83;;;6.60;99.90;;;;;;4940543;29;20420;-81
2023/11/11 01:59:08;;;;;;;37.03;20.17;;;6.60;99.90;;;;;;4976692;29;20480;-76
2023/11/11 02:01:34;;;;;;;37.50;18.77;;;6.60;99.90;;;;;;4950238;29;20449;-76
2023/11/11 02:04:00;;;;;;;34.70;20.10;;;6.40;99.90;;;;;;4956298;29;20473;-77
2023/11/11 02:06:28;;;;;;;40.70;20.50;;;6.50;99.90;;;;;;4943289;29;20217;-77
2023/11/11 02:08:53;;;;;;;37.90;20.07;;;6.60;99.90;;;;;;4941588;29;20218;-77
2023/11/11 02:11:19;;;;;;;47.40;22.50;;;6.40;99.90;;;;;;4940150;29;20467;-77
2023/11/11 02:13:45;;;;;;;44.67;21.90;;;6.40;99.90;;;;;;4961742;29;20265;-79
2023/11/11 02:16:12;;;;;;;35.40;19.97;;;6.40;99.90;;;;;;4953764;29;20452;-76
2023/11/11 02:18:40;;;;;;;37.27;19.97;;;6.40;99.90;;;;;;4951786;29;20412;-77
2023/11/11 02:21:05;;;;;;;34.20;18.97;;;6.20;99.90;;;;;;4966343;29;20432;-77
2023/11/11 02:23:35;;;;;;;35.17;17.73;;;6.20;99.90;;;;;;4958889;29;20420;-77
2023/11/11 02:26:02;;;;;;;34.20;18.10;;;6.40;99.90;;;;;;4960357;29;20216;-77
2023/11/11 02:28:28;;;;;;;35.50;18.50;;;6.30;99.90;;;;;;4957663;28;20418;-77
2023/11/11 02:30:54;;;;;;;34.20;16.87;;;6.20;99.90;;;;;;4966702;29;20492;-77
2023/11/11 02:33:20;;;;;;;36.63;17.73;;;6.20;99.90;;;;;;4951845;29;20508;-77
2023/11/11 02:35:46;;;;;;;31.00;16.07;;;6.40;99.90;;;;;;4968945;28;20285;-78
2023/11/11 02:38:12;;;;;;;32.67;15.20;;;6.20;99.90;;;;;;4929780;29;20423;-78
2023/11/11 02:40:42;;;;;;;26.80;14.97;;;6.10;99.90;;;;;;4933022;29;20420;-76
2023/11/11 02:43:07;;;;;;;36.77;15.93;;;6.10;99.90;;;;;;4955343;29;20437;-77
2023/11/11 02:45:33;;;;;;;30.30;14.60;;;6.20;99.90;;;;;;4941355;29;20442;-76
2023/11/11 02:48:01;;;;;;;30.17;15.30;;;6.40;99.90;;;;;;4956657;29;20229;-77
2023/11/11 02:50:27;;;;;;;30.63;14.40;;;6.30;99.90;;;;;;4947605;29;20470;-77
2023/11/11 02:52:53;;;;;;;33.37;16.37;;;6.50;99.90;;;;;;4938833;29;20426;-77
2023/11/11 02:55:19;;;;;;;41.67;17.43;;;6.40;99.90;;;;;;4931423;29;20441;-77
2023/11/11 02:57:47;;;;;;;41.67;18.87;;;6.40;99.90;;;;;;4943784;29;20513;-76
2023/11/11 03:00:13;;;;;;;41.03;16.27;;;6.40;99.90;;;;;;4947976;29;20517;-76
2023/11/11 03:02:40;;;;;;;37.67;16.70;;;6.50;99.90;;;;;;4940482;29;20902;-77
2023/11/11 03:05:06;;;;;;;35.80;16.97;;;6.50;99.90;;;;;;4938818;29;20491;-76
2023/11/11 03:07:34;;;;;;;41.00;17.43;;;6.40;99.90;;;;;;4936659;29;20485;-78
2023/11/11 03:10:04;;;;;;;46.70;18.23;;;6.30;99.90;;;;;;4937472;29;20459;-76
2023/11/11 03:12:33;;;;;;;42.53;17.17;;;6.30;99.90;;;;;;4929389;29;20433;-77
2023/11/11 03:15:02;;;;;;;42.60;19.30;;;6.40;99.90;;;;;;4929045;29;20457;-77
2023/11/11 03:17:28;;;;;;;43.40;18.20;;;6.00;99.90;;;;;;4933716;29;20794;-75
2023/11/11 03:19:54;;;;;;;46.47;19.93;;;6.10;99.90;;;;;;4963123;29;20449;-77
2023/11/11 03:22:20;;;;;;;41.30;18.17;;;6.30;99.90;;;;;;4937964;29;20493;-77
2023/11/11 03:24:46;;;;;;;42.10;18.77;;;6.20;99.90;;;;;;4937215;29;20453;-77
2023/11/11 03:27:11;;;;;;;50.33;18.73;;;6.20;99.90;;;;;;4952633;29;20186;-79
2023/11/11 03:29:37;;;;;;;47.27;18.80;;;6.30;99.90;;;;;;4930790;29;20194;-77
2023/11/11 03:32:03;;;;;;;46.57;18.97;;;6.20;99.90;;;;;;4919913;29;20194;-78
2023/11/11 03:34:29;;;;;;;45.33;18.83;;;6.20;99.90;;;;;;4947563;29;20229;-77
2023/11/11 03:36:54;;;;;;;52.93;19.40;;;6.30;99.90;;;;;;4947548;29;20481;-77
2023/11/11 03:39:20;;;;;;;45.50;18.53;;;6.10;99.90;;;;;;4935308;29;20185;-77
2023/11/11 03:41:46;;;;;;;45.17;17.17;;;6.20;99.90;;;;;;4937793;29;20181;-76
2023/11/11 03:44:11;;;;;;;45.47;16.67;;;6.00;99.90;;;;;;4953383;29;20208;-77
2023/11/11 03:46:37;;;;;;;42.40;18.23;;;6.00;99.90;;;;;;4965264;29;20185;-76
2023/11/11 03:49:05;;;;;;;41.37;17.43;;;6.10;99.90;;;;;;4971438;29;20268;-76
2023/11/11 03:51:31;;;;;;;42.03;16.30;;;6.20;99.90;;;;;;4963661;29;20453;-79
2023/11/11 03:53:56;;;;;;;38.20;16.27;;;6.10;99.90;;;;;;4941138;29;20437;-76
2023/11/11 03:56:24;;;;;;;37.33;15.87;;;6.10;99.90;;;;;;4945424;29;20205;-76
2023/11/11 03:58:50;;;;;;;36.87;14.60;;;6.10;99.90;;;;;;4939796;29;20201;-77
2023/11/11 04:01:16;;;;;;;35.43;15.97;;;6.20;99.90;;;;;;4952890;29;20429;-77
2023/11/11 04:03:43;;;;;;;32.47;14.10;;;6.20;99.90;;;;;;4935674;29;20193;-77
2023/11/11 04:06:09;;;;;;;29.53;12.53;;;6.30;99.90;;;;;;4955925;28;20227;-77
2023/11/11 04:08:36;;;;;;;30.97;14.17;;;6.20;99.90;;;;;;4930649;29;20491;-76
2023/11/11 04:11:06;;;;;;;21.93;10.77;;;6.30;99.90;;;;;;4972683;29;20457;-76
2023/11/11 04:13:40;;;;;;;22.13;10.63;;;5.90;99.90;;;;;;4949319;29;20486;-76
2023/11/11 04:16:08;;;;;;;23.97;10.63;;;5.90;99.90;;;;;;4932932;29;20445;-76
2023/11/11 04:18:34;;;;;;;22.00;9.80;;;6.00;99.90;;;;;;4951212;29;20499;-76
2023/11/11 04:21:00;;;;;;;20.73;9.10;;;6.00;99.90;;;;;;4964525;29;20888;-76
2023/11/11 04:23:28;;;;;;;24.33;10.90;;;6.00;99.90;;;;;;4958256;29;20201;-77
2023/11/11 04:25:57;;;;;;;18.80;9.57;;;6.00;99.90;;;;;;4938823;29;20449;-76
2023/11/11 04:28:27;;;;;;;27.43;10.73;;;6.10;99.90;;;;;;4945995;29;20424;-78
2023/11/11 04:30:53;;;;;;;15.40;9.20;;;5.90;99.90;;;;;;4959750;29;20461;-79
2023/11/11 04:33:22;;;;;;;19.77;9.60;;;6.00;99.90;;;;;;4928891;29;20477;-77
2023/11/11 04:35:51;;;;;;;19.03;9.40;;;6.00;99.90;;;;;;4962035;29;20221;-77
2023/11/11 04:38:17;;;;;;;15.63;8.70;;;6.10;99.90;;;;;;4962493;29;20429;-76
2023/11/11 04:40:44;;;;;;;19.50;8.53;;;6.30;99.90;;;;;;4937348;29;20488;-76
2023/11/11 04:43:10;;;;;;;15.47;7.93;;;6.30;99.90;;;;;;4949903;29;20188;-76
2023/11/11 04:45:36;;;;;;;17.87;8.13;;;6.10;99.90;;;;;;4953954;29;20519;-77
2023/11/11 04:48:02;;;;;;;23.53;9.17;;;6.10;99.90;;;;;;4952191;29;20456;-76
2023/11/11 04:50:27;;;;;;;16.77;8.37;;;6.00;99.90;;;;;;4930720;29;20540;-76
2023/11/11 04:52:53;;;;;;;14.17;8.03;;;6.10;99.90;;;;;;4934757;29;20199;-76
2023/11/11 04:55:18;;;;;;;17.23;8.30;;;6.10;99.90;;;;;;4960295;29;20311;-77
2023/11/11 04:57:44;;;;;;;16.00;6.60;;;5.80;99.90;;;;;;4958783;29;20240;-76
2023/11/11 05:00:10;;;;;;;24.67;8.13;;;5.90;99.90;;;;;;4941565;29;20208;-76
2023/11/11 05:02:39;;;;;;;13.90;7.00;;;6.10;99.90;;;;;;4945137;29;20189;-76
2023/11/11 05:05:05;;;;;;;11.77;6.63;;;6.20;99.90;;;;;;4943659;29;20452;-76
2023/11/11 05:07:31;;;;;;;18.17;7.57;;;6.20;99.90;;;;;;4951925;29;20430;-76
2023/11/11 05:09:57;;;;;;;12.17;6.47;;;6.20;99.90;;;;;;4943083;29;20492;-75
2023/11/11 05:12:22;;;;;;;11.67;5.67;;;6.20;99.90;;;;;;4961844;29;20430;-76
2023/11/11 05:14:49;;;;;;;15.33;6.00;;;6.20;99.90;;;;;;4925805;29;20210;-77
2023/11/11 05:17:16;;;;;;;14.93;5.37;;;6.30;99.90;;;;;;4933194;29;20190;-77
2023/11/11 05:19:42;;;;;;;10.67;4.80;;;6.30;99.90;;;;;;4944902;29;20424;-75
2023/11/11 05:22:09;;;;;;;16.03;5.50;;;6.10;99.90;;;;;;4946184;29;20873;-76
2023/11/11 05:24:34;;;;;;;12.60;6.40;;;6.30;99.90;;;;;;4941299;29;20441;-77
2023/11/11 05:27:00;;;;;;;13.10;5.30;;;6.20;99.90;;;;;;4955784;29;20441;-77
2023/11/11 05:29:25;;;;;;;11.53;4.77;;;6.20;99.90;;;;;;4940629;29;20223;-77
2023/11/11 05:31:51;;;;;;;19.47;5.97;;;6.30;99.90;;;;;;4941563;29;20224;-77
2023/11/11 05:34:17;;;;;;;9.33;4.90;;;6.20;99.90;;;;;;4939820;29;20241;-77
2023/11/11 05:36:43;;;;;;;7.90;4.00;;;6.20;99.90;;;;;;4948756;29;20217;-77
2023/11/11 05:39:09;;;;;;;9.30;5.50;;;6.20;99.90;;;;;;4954659;29;20557;-76
2023/11/11 05:41:37;;;;;;;11.67;4.43;;;6.20;99.90;;;;;;4962221;29;20224;-76
2023/11/11 05:44:06;;;;;;;10.23;5.30;;;6.20;99.90;;;;;;4950849;29;20440;-76
2023/11/11 05:46:32;;;;;;;10.13;5.27;;;6.10;99.90;;;;;;4955598;29;20455;-76
2023/11/11 05:48:57;;;;;;;8.93;4.90;;;6.00;99.90;;;;;;4964185;29;20421;-78
2023/11/11 05:51:24;;;;;;;10.27;5.50;;;6.00;99.90;;;;;;4939504;29;20221;-76
2023/11/11 05:53:50;;;;;;;12.00;5.67;;;6.00;99.90;;;;;;4967815;29;20185;-77
2023/11/11 05:56:16;;;;;;;11.97;6.20;;;6.00;99.90;;;;;;4940973;29;20442;-77
2023/11/11 05:58:43;;;;;;;9.77;5.90;;;6.00;99.90;;;;;;4966725;29;20177;-77
2023/11/11 06:01:08;;;;;;;14.20;7.40;;;6.00;99.90;;;;;;4940432;29;20807;-77
2023/11/11 06:03:40;;;;;;;19.37;7.70;;;6.00;99.90;;;;;;4958299;29;20406;-76
2023/11/11 06:06:06;;;;;;;33.40;12.73;;;5.80;99.90;;;;;;4920774;29;20490;-76
2023/11/11 06:08:32;;;;;;;24.50;11.67;;;5.90;99.90;;;;;;4964644;29;20416;-76
2023/11/11 06:10:58;;;;;;;25.80;12.43;;;6.00;99.90;;;;;;4935454;29;20273;-77
2023/11/11 06:13:24;;;;;;;23.10;11.23;;;5.90;99.90;;;;;;4942981;29;20452;-76
2023/11/11 06:15:50;;;;;;;27.30;12.40;;;5.70;99.90;;;;;;4930705;29;20454;-76
2023/11/11 06:18:16;;;;;;;20.83;11.07;;;5.70;99.90;;;;;;4932250;29;20182;-77
2023/11/11 06:20:42;;;;;;;23.63;12.20;;;5.50;99.90;;;;;;4964551;29;20457;-77
2023/11/11 06:23:07;;;;;;;25.13;12.90;;;5.50;99.90;;;;;;4928902;29;20425;-77
2023/11/11 06:25:33;;;;;;;31.57;12.50;;;5.60;99.90;;;;;;4969475;29;20233;-77
2023/11/11 06:27:59;;;;;;;26.83;13.43;;;5.40;99.90;;;;;;4962585;29;20209;-79
2023/11/11 06:30:25;;;;;;;23.10;12.30;;;5.40;99.90;;;;;;4947996;29;20217;-78
2023/11/11 06:32:56;;;;;;;27.97;12.00;;;5.50;99.90;;;;;;4946976;28;20197;-79
2023/11/11 06:35:26;;;;;;;20.43;11.80;;;5.40;99.90;;;;;;4920779;29;20250;-77
2023/11/11 06:37:53;;;;;;;24.63;12.70;;;5.20;99.90;;;;;;4905071;29;20443;-77
2023/11/11 06:40:19;;;;;;;24.00;11.70;;;5.20;99.90;;;;;;4903841;29;20495;-78
2023/11/11 06:42:45;;;;;;;28.03;13.67;;;5.20;99.90;;;;;;4921642;29;20415;-77
2023/11/11 06:45:14;;;;;;;22.10;12.70;;;5.50;99.90;;;;;;4908668;29;20211;-78
2023/11/11 06:47:41;;;;;;;24.03;11.70;;;5.30;99.90;;;;;;4902166;29;20708;-78
2023/11/11 06:50:07;;;;;;;29.10;13.70;;;5.50;99.90;;;;;;4925419;29;20442;-77
2023/11/11 06:52:35;;;;;;;35.33;14.37;;;5.50;99.90;;;;;;4920857;29;20408;-77
2023/11/11 06:55:10;;;;;;;28.50;15.00;;;5.70;99.90;;;;;;4909192;29;20478;-78
2023/11/11 06:57:46;;;;;;;39.00;14.20;;;5.60;99.90;;;;;;4921210;29;20414;-77
2023/11/11 07:00:18;;;;;;;36.67;15.67;;;5.60;99.90;;;;;;4937971;29;20425;-78
2023/11/11 07:02:55;;;;;;;37.07;17.03;;;5.70;99.90;;;;;;4922612;29;20258;-80
2023/11/11 07:05:22;;;;;;;34.23;15.27;;;5.60;99.90;;;;;;4905589;29;20479;-79
2023/11/11 07:07:48;;;;;;;29.27;13.17;;;5.40;99.90;;;;;;4943121;29;20500;-78
2023/11/11 07:10:14;;;;;;;57.37;19.10;;;5.50;99.90;;;;;;4941712;29;20472;-76
2023/11/11 07:12:41;;;;;;;46.40;19.10;;;5.50;99.90;;;;;;4936637;29;20185;-78
2023/11/11 07:15:10;;;;;;;54.50;21.67;;;5.70;99.90;;;;;;4919710;29;20469;-78
2023/11/11 07:17:36;;;;;;;54.30;20.30;;;5.70;99.90;;;;;;4951019;29;20401;-78
2023/11/11 07:20:05;;;;;;;51.63;18.70;;;5.50;99.90;;;;;;4961988;29;20445;-79
2023/11/11 07:22:32;;;;;;;53.43;19.87;;;5.70;99.90;;;;;;4952972;29;20752;-79
2023/11/11 07:24:58;;;;;;;63.77;20.23;;;5.80;99.90;;;;;;4936870;29;20453;-77
2023/11/11 07:27:24;;;;;;;58.93;21.50;;;5.70;99.90;;;;;;4934731;29;20430;-79
2023/11/11 07:29:51;;;;;;;43.30;18.60;;;5.50;99.90;;;;;;4933793;29;20480;-77
2023/11/11 07:32:17;;;;;;;34.07;16.13;;;5.70;99.90;;;;;;4944667;29;20182;-79
2023/11/11 07:34:44;;;;;;;56.57;21.10;;;5.50;99.90;;;;;;4967879;28;20449;-79
2023/11/11 07:37:11;;;;;;;49.33;18.40;;;5.50;99.90;;;;;;4936703;29;20205;-80
2023/11/11 07:39:39;;;;;;;97.87;31.33;;;5.30;99.90;;;;;;4975024;29;20435;-80
2023/11/11 07:42:07;;;;;;;58.60;22.37;;;5.50;99.90;;;;;;4945536;29;20405;-79
2023/11/11 07:44:35;;;;;;;55.27;22.07;;;5.30;99.90;;;;;;4962456;28;20441;-80
2023/11/11 07:47:01;;;;;;;39.40;17.60;;;5.30;99.90;;;;;;4946306;29;20450;-80
2023/11/11 07:49:28;;;;;;;45.00;19.07;;;5.50;99.90;;;;;;4962141;29;20423;-79
2023/11/11 07:51:54;;;;;;;51.80;21.30;;;5.40;99.90;;;;;;4939781;29;20505;-78
2023/11/11 07:54:20;;;;;;;54.47;19.67;;;5.30;99.90;;;;;;4975749;28;20471;-81
2023/11/11 07:56:47;;;;;;;47.80;18.20;;;5.50;99.90;;;;;;4944600;29;20548;-78
2023/11/11 07:59:15;;;;;;;49.93;18.10;;;5.40;99.90;;;;;;4939682;29;20415;-81
2023/11/11 08:01:41;;;;;;;47.20;18.10;;;5.40;99.90;;;;;;4923844;29;20518;-80
2023/11/11 08:04:08;;;;;;;40.83;15.63;;;5.60;99.90;;;;;;4928248;29;20458;-78
2023/11/11 08:06:39;;;;;;;38.40;15.23;;;5.50;99.90;;;;;;4927060;29;20429;-79
2023/11/11 08:09:09;;;;;;;52.17;19.40;;;5.50;99.90;;;;;;4941766;29;20421;-79
2023/11/11 08:11:36;;;;;;;46.60;19.87;;;5.70;99.90;;;;;;4946487;28;20466;-79
2023/11/11 08:14:05;;;;;;;46.30;18.60;;;5.80;99.90;;;;;;4953095;28;20849;-80
2023/11/11 08:16:33;;;;;;;42.90;16.37;;;5.90;99.90;;;;;;4927399;29;20462;-79
2023/11/11 08:19:00;;;;;;;41.83;17.23;;;6.30;99.90;;;;;;4947068;29;20421;-80
2023/11/11 08:21:48;;;;;;;49.73;18.47;;;6.30;99.90;;;;;;4962833;28;20434;-81
2023/11/11 08:24:17;;;;;;;35.17;15.30;;;6.40;99.90;;;;;;4961917;28;20435;-78
2023/11/11 08:26:44;;;;;;;73.10;21.50;;;6.30;99.90;;;;;;4960311;28;20432;-79
2023/11/11 08:29:11;;;;;;;52.47;25.33;;;6.50;99.90;;;;;;4943099;28;20429;-81
2023/11/11 08:31:39;;;;;;;56.57;21.37;;;6.50;99.90;;;;;;4959434;28;20263;-80
2023/11/11 08:34:07;;;;;;;70.90;22.60;;;6.40;99.90;;;;;;4947478;28;20425;-80
2023/11/11 08:36:41;;;;;;;102.30;21.80;;;6.60;99.90;;;;;;4955802;28;20481;-80
2023/11/11 08:39:09;;;;;;;56.43;18.53;;;6.40;99.90;;;;;;4927186;29;20410;-79
2023/11/11 08:41:38;;;;;;;42.73;18.80;;;6.50;99.90;;;;;;4943176;29;20429;-79
2023/11/11 08:44:06;;;;;;;48.87;17.27;;;6.60;99.90;;;;;;4943294;29;20396;-78
2023/11/11 08:46:33;;;;;;;54.00;20.20;;;6.50;99.90;;;;;;4961976;28;20433;-80
2023/11/11 08:48:59;;;;;;;39.40;17.03;;;6.60;99.90;;;;;;4946421;29;20429;-78
2023/11/11 08:51:26;;;;;;;62.13;15.30;;;6.60;99.90;;;;;;4946204;29;20501;-80
2023/11/11 08:53:58;;;;;;;29.67;12.33;;;6.60;99.90;;;;;;4927390;28;20426;-80
2023/11/11 08:56:28;;;;;;;52.63;16.60;;;6.60;99.90;;;;;;5077370;23;20488;-79
2023/11/11 08:58:56;;;;;;;31.07;13.57;;;6.80;99.90;;;;;;4934241;29;20429;-82
2023/11/11 09:01:37;;;;;;;52.97;16.10;;;6.80;99.90;;;;;;4945397;28;20440;-80
2023/11/11 09:04:03;;;;;;;28.43;12.20;;;6.80;99.90;;;;;;4953631;28;20450;-79
2023/11/11 09:06:31;;;;;;;30.60;12.20;;;6.90;99.90;;;;;;4941582;28;20456;-81
2023/11/11 09:12:16;;;;;;;21.60;11.03;;;7.20;99.90;;;;;;4993576;23;20480;-81
2023/11/11 09:17:35;;;;;;;26.37;11.77;;;7.40;99.90;;;;;;5214450;23;20480;-82
2023/11/11 09:20:07;;;;;;;25.13;11.00;;;7.60;99.90;;;;;;4944090;29;20418;-78
2023/11/11 09:22:34;;;;;;;24.57;11.27;;;7.70;99.90;;;;;;4927454;29;20434;-80
2023/11/11 09:25:00;;;;;;;21.33;10.47;;;7.70;99.90;;;;;;4927182;29;20473;-80
2023/11/11 09:27:46;;;;;;;25.33;11.90;;;7.70;99.90;;;;;;4927513;28;20425;-81
2023/11/11 09:30:28;;;;;;;21.40;11.37;;;7.80;99.90;;;;;;4958067;28;20569;-81
2023/11/11 09:32:58;;;;;;;17.73;9.37;;;7.80;99.90;;;;;;4948606;28;20502;-83
2023/11/11 09:35:37;;;;;;;19.90;11.10;;;7.90;99.90;;;;;;4920501;29;20472;-80
2023/11/11 09:38:19;;;;;;;14.57;10.27;;;8.20;99.90;;;;;;4907146;29;20415;-82
2023/11/11 09:41:00;;;;;;;19.40;10.13;;;8.30;99.90;;;;;;4920104;28;20418;-82
2023/11/11 09:43:37;;;;;;;13.50;9.60;;;8.30;99.90;;;;;;4887068;29;20428;-84
2023/11/11 09:46:32;;;;;;;13.20;8.30;;;8.40;99.90;;;;;;4873828;29;20472;-79
2023/11/11 09:49:21;;;;;;;10.83;7.20;;;8.40;99.90;;;;;;4870961;29;20431;-80
2023/11/11 09:51:53;;;;;;;13.60;7.50;;;8.50;99.90;;;;;;4900951;29;20490;-81
2023/11/11 09:54:23;;;;;;;11.43;8.13;;;8.70;99.90;;;;;;4856674;29;20417;-81
2023/11/11 09:56:58;;;;;;;11.47;7.13;;;8.90;99.90;;;;;;4905293;29;20447;-81
2023/11/11 09:59:29;;;;;;;13.90;6.77;;;9.00;99.90;;;;;;4920896;29;20431;-81
2023/11/11 10:02:26;;;;;;;9.60;6.73;;;9.20;99.90;;;;;;4890465;29;20491;-81
2023/11/11 10:04:54;;;;;;;8.60;6.07;;;9.30;99.90;;;;;;5071524;23;20481;-83
2023/11/11 10:07:25;;;;;;;11.10;6.90;;;9.40;99.90;;;;;;4942898;28;20433;-80
2023/11/11 10:09:52;;;;;;;11.53;7.10;;;9.60;99.90;;;;;;4912275;29;20477;-81
2023/11/11 10:12:59;;;;;;;7.50;5.70;;;9.50;99.90;;;;;;4943481;28;20473;-81
2023/11/11 10:21:16;;;;;;;10.17;6.37;;;9.60;99.90;;;;;;3135370;23;20549;-81
2023/11/11 10:23:48;;;;;;;10.97;4.57;;;9.50;99.90;;;;;;4898562;29;20427;-81
2023/11/11 10:29:38;;;;;;;7.77;5.60;;;9.60;99.90;;;;;;4991343;23;20469;-79
2023/11/11 10:32:13;;;;;;;7.53;4.50;;;9.60;99.90;;;;;;4930818;28;20430;-82
2023/11/11 10:34:42;;;;;;;9.33;4.60;;;9.70;99.90;;;;;;4950824;28;20441;-80
2023/11/11 10:37:47;;;;;;;6.40;4.40;;;9.70;99.90;;;;;;4930568;28;20442;-81
2023/11/11 10:40:55;;;;;;;6.50;4.53;;;9.80;99.90;;;;;;4920892;28;20426;-80
2023/11/11 10:43:33;;;;;;;7.00;4.60;;;9.90;99.90;;;;;;4927743;28;20446;-82
2023/11/11 11:38:40;;;;;;;6.83;3.87;;;9.90;99.90;;;;;;4455811;23;20495;-83
2023/11/11 11:41:36;;;;;;;7.63;2.90;;;9.90;99.90;;;;;;4892770;29;20498;-83
2023/11/11 11:47:04;;;;;;;5.80;3.30;;;10.00;99.90;;;;;;5292599;23;20485;-82
2023/11/11 11:49:35;;;;;;;6.10;3.30;;;10.00;99.90;;;;;;4893659;29;20434;-83
2023/11/11 11:52:19;;;;;;;6.07;3.30;;;10.10;99.90;;;;;;5234298;23;20478;-83
2023/11/11 12:12:24;;;;;;;5.83;3.60;;;10.30;99.90;;;;;;5719847;23;20537;-83
2023/11/11 13:01:50;;;;;;;7.30;3.97;;;11.40;99.90;;;;;;4902428;24;20575;-82
2023/11/11 13:22:28;;;;;;;5.67;3.80;;;10.50;99.90;;;;;;3643349;23;20825;-83
2023/11/11 13:58:15;;;;;;;5.60;3.00;;;9.20;99.90;;;;;;4719570;23;20471;-81
2023/11/11 15:51:41;;;;;;;3.47;2.93;;;8.10;99.90;;;;;;4225241;23;20482;-81
2023/11/11 16:06:50;;;;;;;9.33;6.13;;;7.60;99.90;;;;;;5036781;23;20459;-81
2023/11/11 16:10:15;;;;;;;6.80;4.90;;;7.60;99.90;;;;;;4916691;29;20432;-81
2023/11/11 16:13:41;;;;;;;8.17;4.33;;;7.50;99.90;;;;;;4904630;29;20409;-82
2023/11/11 19:13:28;;;;;;;7.00;4.77;;;6.50;99.90;;;;;;4126790;23;20787;-81
2023/11/11 20:09:12;;;;;;;71.03;40.70;;;5.30;99.90;;;;;;2633130;23;20921;-82
2023/11/11 21:45:35;;;;;;;10.80;8.70;;;4.70;99.90;;;;;;4442578;23;20756;-81
2023/11/11 22:13:00;;;;;;;9.07;6.97;;;4.80;99.90;;;;;;5110288;23;20486;-80
2023/11/11 22:15:48;;;;;;;11.27;7.60;;;4.80;99.90;;;;;;4894517;29;20429;-81
2023/11/11 22:18:16;;;;;;;12.30;10.20;;;4.70;99.90;;;;;;4841873;29;20481;-82
2023/11/11 22:20:49;;;;;;;11.70;8.37;;;4.60;99.90;;;;;;4846397;29;20485;-80
2023/11/11 22:35:29;;;;;;;8.90;6.60;;;5.50;99.90;;;;;;4905074;23;20479;-80
2023/11/11 22:38:06;;;;;;;9.90;6.20;;;5.50;99.90;;;;;;4889617;29;20416;-79
2023/11/11 22:40:55;;;;;;;11.80;8.73;;;5.60;99.90;;;;;;4906158;29;20412;-83
2023/11/11 22:43:37;;;;;;;8.90;6.50;;;5.80;99.90;;;;;;4847735;29;20412;-79
2023/11/11 22:49:05;;;;;;;11.53;7.37;;;5.80;99.90;;;;;;5082533;23;20483;-80
2023/11/11 22:51:32;;;;;;;12.30;8.53;;;5.90;99.90;;;;;;4889636;29;20539;-82
2023/11/11 22:54:12;;;;;;;13.27;7.73;;;6.00;99.90;;;;;;4859354;29;20436;-81
2023/11/11 22:56:41;;;;;;;13.00;8.50;;;6.00;99.90;;;;;;4856461;29;20409;-80
2023/11/11 22:59:29;;;;;;;8.93;7.30;;;5.90;99.90;;;;;;4858480;29;20467;-81
2023/11/11 23:01:58;;;;;;;8.13;6.53;;;6.00;99.90;;;;;;4871395;29;20489;-81
2023/11/11 23:04:28;;;;;;;8.03;6.23;;;5.80;99.90;;;;;;4857383;29;20441;-81
2023/11/11 23:06:54;;;;;;;7.50;5.73;;;5.70;99.90;;;;;;4855951;29;20417;-81
2023/11/11 23:09:21;;;;;;;10.80;7.37;;;5.80;99.90;;;;;;4840912;29;20231;-80
2023/11/11 23:11:49;;;;;;;6.63;5.87;;;5.70;99.90;;;;;;4870904;29;20212;-82
2023/11/11 23:14:20;;;;;;;7.53;5.53;;;5.60;99.90;;;;;;4862073;29;20440;-79
2023/11/11 23:17:34;;;;;;;6.10;5.27;;;5.50;99.90;;;;;;4873699;29;20420;-83
2023/11/11 23:20:05;;;;;;;9.10;6.57;;;5.40;99.90;;;;;;4888933;29;20176;-79
2023/11/11 23:22:37;;;;;;;8.20;6.10;;;5.40;99.90;;;;;;4873247;29;20488;-79
2023/11/11 23:25:07;;;;;;;10.10;5.83;;;5.30;99.90;;;;;;4941164;23;20506;-80
2023/11/11 23:27:33;;;;;;;7.73;5.50;;;5.30;99.90;;;;;;4858636;29;20464;-80
2023/11/11 23:33:12;;;;;;;10.17;5.43;;;5.20;99.90;;;;;;5166078;23;20238;-80
2023/11/11 23:35:40;;;;;;;7.33;5.40;;;5.00;99.90;;;;;;4877114;29;20460;-79
2023/11/11 23:38:09;;;;;;;6.47;5.40;;;5.00;99.90;;;;;;4870198;29;20473;-80
2023/11/11 23:40:36;;;;;;;6.30;4.70;;;4.80;99.90;;;;;;4870603;29;20177;-80
2023/11/11 23:43:04;;;;;;;7.80;5.40;;;4.80;99.90;;;;;;4870305;29;20468;-81
2023/11/11 23:45:33;;;;;;;6.10;4.90;;;4.70;99.90;;;;;;4879156;29;20436;-79
2023/11/11 23:48:03;;;;;;;6.83;4.00;;;4.60;99.90;;;;;;4860237;29;21026;-80
2023/11/11 23:50:29;;;;;;;5.70;4.53;;;4.60;99.90;;;;;;4836269;29;20495;-79
2023/11/11 23:53:22;;;;;;;13.83;8.50;;;4.60;99.90;;;;;;4851170;29;20434;-80
2023/11/11 23:55:59;;;;;;;16.77;8.60;;;4.60;99.90;;;;;;4835997;29;20575;-82
2023/11/11 23:58:26;;;;;;;15.27;7.00;;;4.50;99.90;;;;;;4857672;29;20477;-80
